Warning: Javascript must be enabled to use all the features on this page!


Page Loading - Please Wait...

Click to hideNews Bulletins

Peak Streamflow for the Nation

USGS 11070500 SAN JACINTO R NR ELSINORE CA

Riverside County, California
Hydrologic Unit Code 18070202
Latitude  33°39'51", Longitude 117°17'35" NAD27
Drainage area 723  square miles
Gage datum 1,267.18 feet above NAVD88
Output formats
Table
Graph
Tab-separated file
peakfq (watstore) format
Reselect output format
Water
Year
Date Gage
Height
(feet)
Stream-
flow
(cfs)
1916 1916-01-28 19.00 14,0005
1917 1917-02-26 2.52 1305
1918 1918-03-12 4.28 7505
1919 1919-03-17 1.40 6.505
1920 1920-03-27 3.26 2345
1921 1921   0.005,Bm
1922 1921-12-26 7.286 1,9305
1923 1923-04-13 3.27 64.05
1924 1924-03-26 3.20 56.05
1925 1925-06-26 3.38 77.05
1926 1926-04-08 7.60 2,2005
1927 1927-02-17 11.80 16,0005
1928 1928-02-04 2.56 2.005
1929 1929-04-04 2.44 0.405
1930 1930-03-16 3.07 8.505
1931 1931-02-05 2.88 6.505
1932 1932-03-03 5.41 6545
1933 1933-01-20 2.93 20.05
1934 1934-03-24 2.95 20.05
1935 1935-05-02 2.85 4.705
1936 1936-02-22 2.88 3.605
1937 1937-02-09 7.80 2,2605
1938 1938-03-05 8.41 2,7905
1939 1939-03-24 5.47 5035
1940 1940-02-03 3.39 38.05
1941 1941-03-18 7.52 1,4805
1942 1941-10-02 2.92 11.05
1943 1943-03-05 7.08 1,1705
1944 1944-02-24 4.62 1205
1945 1944-11-15 3.20 12.05
1946 1945-12-22 2.99 6.305
1947 1946-12-26 2.71 2.305
1948 1948-02-06 2.46 0.705
1949 1949-04-29 2.53 0.705
1950 1949-12-07 3.39 18.05
1951 1951   0.005,Bm
1952 1952-03-15 5.56 6585
1953 1953-03-02 2.33 0.505
1954 1954-02-13 3.14 29.05
1955 1955-07-19 2.48 2.305
1956 1956   0.005,Bm
1957 1957-01-14 2.82 13.05
1958 1958-04-07 6.36 8405
1959 1959-01-06 2.29 0.805
1960 1959-11-04 2.46 0.805
1961 1961   0.005,Bm
1962 1962-02-21 2.31 0.205
1963 1963   0.005,Bm
1964 1964-03-23 4.85 3085
1965 1965-04-23 4.99 3055
1966 1966-03-10 4.69 3225
1967 1967-03-07 2.82 11.05
1968 1967-11-19 3.28 34.05
1969 1969-02-25 9.48 6,2605
1970 1970-03-01 2.62 15.05
1971 1970-11-29 2.23 1.605
1972 1972-08-12 2.77 19.05
1973 1973-02-11 3.09 41.05
1974 1974-01-07 3.13 34.05
1975 1974-12-04 2.83 18.05
1976 1976-02-09 3.17 18.05
1977 1977-06-19 2.81 6.205
1978 1978-03-01 9.29 6,2705
1979 1979-01-07 7.32 2,6805
1980 1980-02-22 9.53 9,0105
1981 1981-05-27 3.67 83.05
1982 1982-03-18 5.29 6385
1983 1983-03-02 9.98 9,1705
1984 1983-10-01 2.86 61.05
1985 1984-12-28 2.94 58.05
1986 1986-02-15 3.01 16.05
1987 1987-02-25 2.67 3.705
1988 1988-01-17 3.56 59.05
1989 1989-01-04 2.67 3.705
1990 1990-02-18 2.88 6.405
1991 1991-03-27 9.33 2,6705
1992 1992-02-13 7.26 9135
1993 1993-01-17 10.68 6,8806
1994 1994-03-25 5.23 2996
1995 1995-01-11 9.36 2,5606
1996 1996-02-21 3.16 32.06
1997 1997-01-27 7.14 9756
1998 1998-02-24 11.48 5,9806
1999 1999-07-10 2.74 3.206
2000 2000-02-21 3.56 19.06
2001 2001-03-01 5.69 1026
2002 2001-12-21 3.02 1.606
2003 2003-02-25 10.22 2,1106,C
2004 2004-02-26 5.03 64.06,C
2005 2005-02-23 11.56 5,8706,C
2006 2006-02-28 4.42 28.06,C
2007 2007-04-21 3.47 6.706,C
2008 2008-01-28 9.46 9026,C
2009 2008-12-19 9.21 7596,C
2010 2010-01-21 11.46 5,9106,C
2011 2010-12-22 12.55 5,4306,C
2012 2012-02-16 3.86 12.06,C
2013 2012-12-13 4.97 50.06,C
2014 2014-02-28 6.78 2066,C
2015 2014-12-11 5.41 68.06,C
2016 2015-11-12 7.21 2816,C
2017 2017-01-23 11.22 3,4606,C
2018 2018-01-09 5.59 1176,C
2019 2019-02-14 11.98 8,1306,C
2020 2020-03-13 10.35 2,1106,C
2021 2021-01-30 7.07 3326,C
?
  Peak Gage-Height Qualification Codes.
?
  Peak Streamflow Qualification Codes.